sensor_id;sensor_type;location;lat;lon;timestamp;P1;durP1;ratioP1;P2;durP2;ratioP2
81811;SDS011;71243;51.848;5.768;2023-08-30T00:01:48;8.93;;;4.43;;
81811;SDS011;71243;51.848;5.768;2023-08-30T00:04:14;9.63;;;4.07;;
81811;SDS011;71243;51.848;5.768;2023-08-30T00:06:39;9.60;;;4.20;;
81811;SDS011;71243;51.848;5.768;2023-08-30T00:09:04;9.38;;;3.88;;
81811;SDS011;71243;51.848;5.768;2023-08-30T00:11:29;8.68;;;3.22;;
81811;SDS011;71243;51.848;5.768;2023-08-30T00:14:02;9.35;;;3.75;;
81811;SDS011;71243;51.848;5.768;2023-08-30T00:16:28;8.30;;;3.63;;
81811;SDS011;71243;51.848;5.768;2023-08-30T00:18:53;9.27;;;4.10;;
81811;SDS011;71243;51.848;5.768;2023-08-30T00:21:18;9.20;;;3.80;;
81811;SDS011;71243;51.848;5.768;2023-08-30T00:23:44;9.52;;;4.03;;
81811;SDS011;71243;51.848;5.768;2023-08-30T00:26:09;8.30;;;3.77;;
81811;SDS011;71243;51.848;5.768;2023-08-30T00:28:34;8.90;;;3.72;;
81811;SDS011;71243;51.848;5.768;2023-08-30T00:30:59;11.37;;;4.60;;
81811;SDS011;71243;51.848;5.768;2023-08-30T00:33:25;8.27;;;4.10;;
81811;SDS011;71243;51.848;5.768;2023-08-30T00:35:56;9.00;;;4.00;;
81811;SDS011;71243;51.848;5.768;2023-08-30T00:38:22;9.90;;;4.25;;
81811;SDS011;71243;51.848;5.768;2023-08-30T00:40:48;8.07;;;3.83;;
81811;SDS011;71243;51.848;5.768;2023-08-30T00:43:13;10.52;;;4.53;;
81811;SDS011;71243;51.848;5.768;2023-08-30T00:45:38;8.73;;;4.47;;
81811;SDS011;71243;51.848;5.768;2023-08-30T00:48:04;8.48;;;3.90;;
81811;SDS011;71243;51.848;5.768;2023-08-30T00:50:30;9.25;;;4.45;;
81811;SDS011;71243;51.848;5.768;2023-08-30T00:52:55;9.85;;;4.20;;
81811;SDS011;71243;51.848;5.768;2023-08-30T00:55:21;9.05;;;4.18;;
81811;SDS011;71243;51.848;5.768;2023-08-30T00:57:46;9.32;;;4.22;;
81811;SDS011;71243;51.848;5.768;2023-08-30T01:00:11;9.00;;;4.07;;
81811;SDS011;71243;51.848;5.768;2023-08-30T01:02:37;9.05;;;4.45;;
81811;SDS011;71243;51.848;5.768;2023-08-30T01:05:02;9.88;;;3.80;;
81811;SDS011;71243;51.848;5.768;2023-08-30T01:07:28;9.98;;;4.45;;
81811;SDS011;71243;51.848;5.768;2023-08-30T01:09:53;11.03;;;4.10;;
81811;SDS011;71243;51.848;5.768;2023-08-30T01:12:22;9.15;;;4.18;;
81811;SDS011;71243;51.848;5.768;2023-08-30T01:17:20;9.40;;;4.45;;
81811;SDS011;71243;51.848;5.768;2023-08-30T01:27:40;9.70;;;4.30;;
81811;SDS011;71243;51.848;5.768;2023-08-30T01:30:07;10.43;;;4.20;;
81811;SDS011;71243;51.848;5.768;2023-08-30T01:32:35;10.25;;;4.18;;
81811;SDS011;71243;51.848;5.768;2023-08-30T01:35:02;10.05;;;4.47;;
81811;SDS011;71243;51.848;5.768;2023-08-30T01:37:28;9.02;;;4.43;;
81811;SDS011;71243;51.848;5.768;2023-08-30T01:39:55;10.05;;;4.63;;
81811;SDS011;71243;51.848;5.768;2023-08-30T01:42:21;10.10;;;4.45;;
81811;SDS011;71243;51.848;5.768;2023-08-30T01:44:49;11.85;;;4.85;;
81811;SDS011;71243;51.848;5.768;2023-08-30T01:47:16;8.30;;;4.00;;
81811;SDS011;71243;51.848;5.768;2023-08-30T01:49:42;9.75;;;4.53;;
81811;SDS011;71243;51.848;5.768;2023-08-30T01:52:09;10.70;;;4.80;;
81811;SDS011;71243;51.848;5.768;2023-08-30T01:54:35;9.38;;;4.30;;
81811;SDS011;71243;51.848;5.768;2023-08-30T01:57:02;9.52;;;4.15;;
81811;SDS011;71243;51.848;5.768;2023-08-30T01:59:27;9.85;;;4.80;;
81811;SDS011;71243;51.848;5.768;2023-08-30T02:01:54;10.27;;;4.38;;
81811;SDS011;71243;51.848;5.768;2023-08-30T02:04:20;10.55;;;4.82;;
81811;SDS011;71243;51.848;5.768;2023-08-30T02:06:45;10.35;;;4.95;;
81811;SDS011;71243;51.848;5.768;2023-08-30T02:09:21;10.43;;;4.75;;
81811;SDS011;71243;51.848;5.768;2023-08-30T02:11:52;9.07;;;4.10;;
81811;SDS011;71243;51.848;5.768;2023-08-30T02:14:20;9.73;;;4.82;;
81811;SDS011;71243;51.848;5.768;2023-08-30T02:16:46;10.48;;;4.70;;
81811;SDS011;71243;51.848;5.768;2023-08-30T02:19:12;9.93;;;4.20;;
81811;SDS011;71243;51.848;5.768;2023-08-30T02:21:40;9.27;;;4.10;;
81811;SDS011;71243;51.848;5.768;2023-08-30T02:24:05;10.88;;;4.88;;
81811;SDS011;71243;51.848;5.768;2023-08-30T02:26:30;12.65;;;5.13;;
81811;SDS011;71243;51.848;5.768;2023-08-30T02:28:56;35.45;;;5.57;;
81811;SDS011;71243;51.848;5.768;2023-08-30T02:31:21;12.20;;;5.05;;
81811;SDS011;71243;51.848;5.768;2023-08-30T02:33:46;13.50;;;4.82;;
81811;SDS011;71243;51.848;5.768;2023-08-30T02:36:11;11.67;;;5.53;;
81811;SDS011;71243;51.848;5.768;2023-08-30T02:38:37;11.07;;;4.95;;
81811;SDS011;71243;51.848;5.768;2023-08-30T02:41:02;10.07;;;4.70;;
81811;SDS011;71243;51.848;5.768;2023-08-30T02:43:27;11.67;;;5.63;;
81811;SDS011;71243;51.848;5.768;2023-08-30T02:45:52;10.57;;;5.18;;
81811;SDS011;71243;51.848;5.768;2023-08-30T02:48:18;12.15;;;4.70;;
81811;SDS011;71243;51.848;5.768;2023-08-30T02:50:43;12.63;;;6.30;;
81811;SDS011;71243;51.848;5.768;2023-08-30T02:53:08;10.73;;;5.30;;
81811;SDS011;71243;51.848;5.768;2023-08-30T02:55:34;12.32;;;5.28;;
81811;SDS011;71243;51.848;5.768;2023-08-30T02:58:00;12.35;;;6.03;;
81811;SDS011;71243;51.848;5.768;2023-08-30T03:00:25;12.63;;;5.05;;
81811;SDS011;71243;51.848;5.768;2023-08-30T03:02:50;11.43;;;5.43;;
81811;SDS011;71243;51.848;5.768;2023-08-30T03:05:15;10.70;;;5.00;;
81811;SDS011;71243;51.848;5.768;2023-08-30T03:07:41;11.55;;;4.93;;
81811;SDS011;71243;51.848;5.768;2023-08-30T03:10:06;12.23;;;5.28;;
81811;SDS011;71243;51.848;5.768;2023-08-30T03:12:31;13.02;;;5.63;;
81811;SDS011;71243;51.848;5.768;2023-08-30T03:14:57;10.90;;;5.05;;
81811;SDS011;71243;51.848;5.768;2023-08-30T03:17:22;13.37;;;5.83;;
81811;SDS011;71243;51.848;5.768;2023-08-30T03:19:47;11.57;;;5.47;;
81811;SDS011;71243;51.848;5.768;2023-08-30T03:22:12;12.57;;;5.33;;
81811;SDS011;71243;51.848;5.768;2023-08-30T03:24:38;12.93;;;5.53;;
81811;SDS011;71243;51.848;5.768;2023-08-30T03:27:03;12.07;;;5.77;;
81811;SDS011;71243;51.848;5.768;2023-08-30T03:29:28;11.05;;;5.18;;
81811;SDS011;71243;51.848;5.768;2023-08-30T03:31:54;11.75;;;5.00;;
81811;SDS011;71243;51.848;5.768;2023-08-30T03:34:19;12.75;;;5.57;;
81811;SDS011;71243;51.848;5.768;2023-08-30T03:36:44;12.25;;;5.47;;
81811;SDS011;71243;51.848;5.768;2023-08-30T03:39:10;13.95;;;5.95;;
81811;SDS011;71243;51.848;5.768;2023-08-30T03:41:35;11.70;;;5.35;;
81811;SDS011;71243;51.848;5.768;2023-08-30T03:44:00;10.33;;;5.40;;
81811;SDS011;71243;51.848;5.768;2023-08-30T03:46:25;14.93;;;6.00;;
81811;SDS011;71243;51.848;5.768;2023-08-30T03:48:51;10.85;;;5.20;;
81811;SDS011;71243;51.848;5.768;2023-08-30T03:51:16;12.47;;;5.60;;
81811;SDS011;71243;51.848;5.768;2023-08-30T03:53:41;12.55;;;6.00;;
81811;SDS011;71243;51.848;5.768;2023-08-30T03:56:06;11.17;;;5.67;;
81811;SDS011;71243;51.848;5.768;2023-08-30T03:58:31;9.82;;;4.93;;
81811;SDS011;71243;51.848;5.768;2023-08-30T04:00:57;11.32;;;5.63;;
81811;SDS011;71243;51.848;5.768;2023-08-30T04:03:22;11.68;;;5.25;;
81811;SDS011;71243;51.848;5.768;2023-08-30T04:05:54;17.50;;;6.50;;
81811;SDS011;71243;51.848;5.768;2023-08-30T04:08:22;12.98;;;5.72;;
81811;SDS011;71243;51.848;5.768;2023-08-30T04:10:47;11.77;;;5.43;;
81811;SDS011;71243;51.848;5.768;2023-08-30T04:13:12;13.98;;;6.13;;
81811;SDS011;71243;51.848;5.768;2023-08-30T04:15:38;12.82;;;5.72;;
81811;SDS011;71243;51.848;5.768;2023-08-30T04:18:04;13.27;;;6.38;;
81811;SDS011;71243;51.848;5.768;2023-08-30T04:20:31;12.65;;;6.22;;
81811;SDS011;71243;51.848;5.768;2023-08-30T04:22:57;12.85;;;6.22;;
81811;SDS011;71243;51.848;5.768;2023-08-30T04:25:22;12.75;;;6.45;;
81811;SDS011;71243;51.848;5.768;2023-08-30T04:27:48;14.30;;;6.10;;
81811;SDS011;71243;51.848;5.768;2023-08-30T04:30:13;11.90;;;5.53;;
81811;SDS011;71243;51.848;5.768;2023-08-30T04:32:38;13.05;;;6.72;;
81811;SDS011;71243;51.848;5.768;2023-08-30T04:35:04;12.45;;;6.20;;
81811;SDS011;71243;51.848;5.768;2023-08-30T04:37:30;14.27;;;5.82;;
81811;SDS011;71243;51.848;5.768;2023-08-30T04:39:55;11.73;;;5.88;;
81811;SDS011;71243;51.848;5.768;2023-08-30T04:42:21;12.02;;;5.63;;
81811;SDS011;71243;51.848;5.768;2023-08-30T04:44:46;14.13;;;5.90;;
81811;SDS011;71243;51.848;5.768;2023-08-30T04:47:11;16.97;;;6.43;;
81811;SDS011;71243;51.848;5.768;2023-08-30T04:49:36;15.70;;;6.03;;
81811;SDS011;71243;51.848;5.768;2023-08-30T04:52:02;13.57;;;6.45;;
81811;SDS011;71243;51.848;5.768;2023-08-30T04:54:28;13.25;;;6.30;;
81811;SDS011;71243;51.848;5.768;2023-08-30T04:56:54;12.93;;;6.90;;
81811;SDS011;71243;51.848;5.768;2023-08-30T04:59:19;13.60;;;5.93;;
81811;SDS011;71243;51.848;5.768;2023-08-30T05:01:44;12.85;;;5.75;;
81811;SDS011;71243;51.848;5.768;2023-08-30T05:04:10;12.68;;;6.43;;
81811;SDS011;71243;51.848;5.768;2023-08-30T05:06:35;12.57;;;5.93;;
81811;SDS011;71243;51.848;5.768;2023-08-30T05:09:01;15.93;;;6.60;;
81811;SDS011;71243;51.848;5.768;2023-08-30T05:11:26;12.88;;;6.07;;
81811;SDS011;71243;51.848;5.768;2023-08-30T05:13:51;14.17;;;6.63;;
81811;SDS011;71243;51.848;5.768;2023-08-30T05:16:16;12.13;;;5.70;;
81811;SDS011;71243;51.848;5.768;2023-08-30T05:18:42;14.60;;;7.47;;
81811;SDS011;71243;51.848;5.768;2023-08-30T05:21:07;13.63;;;6.73;;
81811;SDS011;71243;51.848;5.768;2023-08-30T05:23:32;14.95;;;7.57;;
81811;SDS011;71243;51.848;5.768;2023-08-30T05:25:58;12.05;;;5.90;;
81811;SDS011;71243;51.848;5.768;2023-08-30T05:28:23;13.32;;;6.40;;
81811;SDS011;71243;51.848;5.768;2023-08-30T05:30:48;16.45;;;7.07;;
81811;SDS011;71243;51.848;5.768;2023-08-30T05:33:14;14.87;;;7.37;;
81811;SDS011;71243;51.848;5.768;2023-08-30T05:35:39;14.50;;;7.27;;
81811;SDS011;71243;51.848;5.768;2023-08-30T05:38:04;14.27;;;7.22;;
81811;SDS011;71243;51.848;5.768;2023-08-30T05:40:30;14.93;;;6.90;;
81811;SDS011;71243;51.848;5.768;2023-08-30T05:42:55;13.85;;;7.25;;
81811;SDS011;71243;51.848;5.768;2023-08-30T05:45:21;16.97;;;7.83;;
81811;SDS011;71243;51.848;5.768;2023-08-30T05:47:46;17.80;;;8.07;;
81811;SDS011;71243;51.848;5.768;2023-08-30T05:50:11;17.48;;;8.18;;
81811;SDS011;71243;51.848;5.768;2023-08-30T05:52:36;16.98;;;7.53;;
81811;SDS011;71243;51.848;5.768;2023-08-30T05:55:02;16.40;;;8.05;;
81811;SDS011;71243;51.848;5.768;2023-08-30T05:57:27;16.50;;;8.80;;
81811;SDS011;71243;51.848;5.768;2023-08-30T05:59:52;17.25;;;7.90;;
81811;SDS011;71243;51.848;5.768;2023-08-30T06:02:17;18.63;;;8.13;;
81811;SDS011;71243;51.848;5.768;2023-08-30T06:04:43;16.37;;;7.07;;
81811;SDS011;71243;51.848;5.768;2023-08-30T06:07:08;15.83;;;8.17;;
81811;SDS011;71243;51.848;5.768;2023-08-30T06:09:33;15.50;;;7.93;;
81811;SDS011;71243;51.848;5.768;2023-08-30T06:11:59;17.63;;;7.80;;
81811;SDS011;71243;51.848;5.768;2023-08-30T06:14:24;13.35;;;7.97;;
81811;SDS011;71243;51.848;5.768;2023-08-30T06:16:50;18.40;;;7.88;;
81811;SDS011;71243;51.848;5.768;2023-08-30T06:19:15;15.23;;;7.70;;
81811;SDS011;71243;51.848;5.768;2023-08-30T06:21:40;15.50;;;7.23;;
81811;SDS011;71243;51.848;5.768;2023-08-30T06:24:06;16.63;;;8.18;;
81811;SDS011;71243;51.848;5.768;2023-08-30T06:26:31;14.75;;;6.93;;
81811;SDS011;71243;51.848;5.768;2023-08-30T06:28:56;16.10;;;7.57;;
81811;SDS011;71243;51.848;5.768;2023-08-30T06:31:22;14.07;;;7.28;;
81811;SDS011;71243;51.848;5.768;2023-08-30T06:33:47;16.35;;;7.60;;
81811;SDS011;71243;51.848;5.768;2023-08-30T06:36:13;17.63;;;7.60;;
81811;SDS011;71243;51.848;5.768;2023-08-30T06:38:39;13.60;;;7.40;;
81811;SDS011;71243;51.848;5.768;2023-08-30T06:41:04;16.17;;;8.27;;
81811;SDS011;71243;51.848;5.768;2023-08-30T06:43:29;15.63;;;7.20;;
81811;SDS011;71243;51.848;5.768;2023-08-30T06:45:57;15.43;;;7.70;;
81811;SDS011;71243;51.848;5.768;2023-08-30T06:48:22;15.10;;;7.35;;
81811;SDS011;71243;51.848;5.768;2023-08-30T06:50:48;13.03;;;6.53;;
81811;SDS011;71243;51.848;5.768;2023-08-30T06:53:13;14.48;;;7.70;;
81811;SDS011;71243;51.848;5.768;2023-08-30T06:55:38;13.55;;;7.35;;
81811;SDS011;71243;51.848;5.768;2023-08-30T06:58:04;14.45;;;6.90;;
81811;SDS011;71243;51.848;5.768;2023-08-30T07:00:29;16.05;;;6.97;;
81811;SDS011;71243;51.848;5.768;2023-08-30T07:02:55;14.27;;;6.88;;
81811;SDS011;71243;51.848;5.768;2023-08-30T07:05:21;14.02;;;6.78;;
81811;SDS011;71243;51.848;5.768;2023-08-30T07:07:47;12.45;;;6.78;;
81811;SDS011;71243;51.848;5.768;2023-08-30T07:10:12;14.48;;;7.18;;
81811;SDS011;71243;51.848;5.768;2023-08-30T07:12:37;13.90;;;7.28;;
81811;SDS011;71243;51.848;5.768;2023-08-30T07:15:03;14.00;;;8.07;;
81811;SDS011;71243;51.848;5.768;2023-08-30T07:17:28;14.55;;;7.00;;
81811;SDS011;71243;51.848;5.768;2023-08-30T07:19:54;15.82;;;6.65;;
81811;SDS011;71243;51.848;5.768;2023-08-30T07:22:19;15.13;;;6.90;;
81811;SDS011;71243;51.848;5.768;2023-08-30T07:24:44;12.98;;;6.32;;
81811;SDS011;71243;51.848;5.768;2023-08-30T07:27:10;15.13;;;8.32;;
81811;SDS011;71243;51.848;5.768;2023-08-30T07:29:35;13.93;;;7.28;;
81811;SDS011;71243;51.848;5.768;2023-08-30T07:32:00;14.38;;;6.90;;
81811;SDS011;71243;51.848;5.768;2023-08-30T07:34:25;13.27;;;6.40;;
81811;SDS011;71243;51.848;5.768;2023-08-30T07:36:53;14.60;;;6.57;;
81811;SDS011;71243;51.848;5.768;2023-08-30T07:39:19;13.70;;;6.00;;
81811;SDS011;71243;51.848;5.768;2023-08-30T07:41:44;14.38;;;6.40;;
81811;SDS011;71243;51.848;5.768;2023-08-30T07:44:09;14.00;;;7.13;;
81811;SDS011;71243;51.848;5.768;2023-08-30T07:46:35;15.53;;;7.00;;
81811;SDS011;71243;51.848;5.768;2023-08-30T07:49:00;16.55;;;7.75;;
81811;SDS011;71243;51.848;5.768;2023-08-30T07:51:25;13.43;;;7.00;;
81811;SDS011;71243;51.848;5.768;2023-08-30T07:53:50;13.47;;;7.10;;
81811;SDS011;71243;51.848;5.768;2023-08-30T07:56:15;13.53;;;6.13;;
81811;SDS011;71243;51.848;5.768;2023-08-30T07:58:41;14.50;;;7.03;;
81811;SDS011;71243;51.848;5.768;2023-08-30T08:01:06;11.57;;;5.50;;
81811;SDS011;71243;51.848;5.768;2023-08-30T08:03:31;14.27;;;6.70;;
81811;SDS011;71243;51.848;5.768;2023-08-30T08:05:58;15.30;;;7.50;;
81811;SDS011;71243;51.848;5.768;2023-08-30T08:08:23;17.30;;;7.72;;
81811;SDS011;71243;51.848;5.768;2023-08-30T08:10:49;14.23;;;6.20;;
81811;SDS011;71243;51.848;5.768;2023-08-30T08:13:14;14.63;;;7.43;;
81811;SDS011;71243;51.848;5.768;2023-08-30T08:15:39;15.57;;;7.80;;
81811;SDS011;71243;51.848;5.768;2023-08-30T08:18:04;15.13;;;7.67;;
81811;SDS011;71243;51.848;5.768;2023-08-30T08:20:30;14.32;;;7.35;;
81811;SDS011;71243;51.848;5.768;2023-08-30T08:22:55;15.43;;;7.43;;
81811;SDS011;71243;51.848;5.768;2023-08-30T08:25:20;16.42;;;8.80;;
81811;SDS011;71243;51.848;5.768;2023-08-30T08:27:46;15.65;;;8.10;;
81811;SDS011;71243;51.848;5.768;2023-08-30T08:30:11;16.33;;;7.97;;
81811;SDS011;71243;51.848;5.768;2023-08-30T08:32:37;17.75;;;8.50;;
81811;SDS011;71243;51.848;5.768;2023-08-30T08:35:02;16.87;;;9.00;;
81811;SDS011;71243;51.848;5.768;2023-08-30T08:37:27;19.25;;;8.93;;
81811;SDS011;71243;51.848;5.768;2023-08-30T08:39:53;18.15;;;8.43;;
81811;SDS011;71243;51.848;5.768;2023-08-30T08:42:18;16.37;;;7.83;;
81811;SDS011;71243;51.848;5.768;2023-08-30T08:44:46;17.33;;;8.98;;
81811;SDS011;71243;51.848;5.768;2023-08-30T08:47:12;19.00;;;8.38;;
81811;SDS011;71243;51.848;5.768;2023-08-30T08:49:37;16.42;;;7.68;;
81811;SDS011;71243;51.848;5.768;2023-08-30T08:52:03;13.32;;;6.53;;
81811;SDS011;71243;51.848;5.768;2023-08-30T08:54:29;15.65;;;8.18;;
81811;SDS011;71243;51.848;5.768;2023-08-30T08:56:55;15.75;;;7.43;;
81811;SDS011;71243;51.848;5.768;2023-08-30T08:59:22;15.65;;;8.07;;
81811;SDS011;71243;51.848;5.768;2023-08-30T09:01:48;15.98;;;7.47;;
81811;SDS011;71243;51.848;5.768;2023-08-30T09:04:14;13.13;;;6.50;;
81811;SDS011;71243;51.848;5.768;2023-08-30T09:06:39;11.17;;;6.03;;
81811;SDS011;71243;51.848;5.768;2023-08-30T09:09:05;15.00;;;7.00;;
81811;SDS011;71243;51.848;5.768;2023-08-30T09:11:30;11.88;;;5.55;;
81811;SDS011;71243;51.848;5.768;2023-08-30T09:13:56;13.60;;;6.28;;
81811;SDS011;71243;51.848;5.768;2023-08-30T09:16:21;13.23;;;6.00;;
81811;SDS011;71243;51.848;5.768;2023-08-30T09:19:04;14.30;;;5.53;;
81811;SDS011;71243;51.848;5.768;2023-08-30T09:21:30;11.60;;;5.18;;
81811;SDS011;71243;51.848;5.768;2023-08-30T09:24:02;11.15;;;5.95;;
81811;SDS011;71243;51.848;5.768;2023-08-30T09:26:31;12.55;;;5.63;;
81811;SDS011;71243;51.848;5.768;2023-08-30T09:29:01;10.63;;;4.53;;
81811;SDS011;71243;51.848;5.768;2023-08-30T09:31:32;9.75;;;4.93;;
81811;SDS011;71243;51.848;5.768;2023-08-30T09:33:58;12.00;;;4.97;;
81811;SDS011;71243;51.848;5.768;2023-08-30T09:36:23;10.90;;;4.65;;
81811;SDS011;71243;51.848;5.768;2023-08-30T09:38:48;9.27;;;4.28;;
81811;SDS011;71243;51.848;5.768;2023-08-30T09:41:13;10.70;;;4.60;;
81811;SDS011;71243;51.848;5.768;2023-08-30T09:43:42;9.32;;;4.05;;
81811;SDS011;71243;51.848;5.768;2023-08-30T09:46:07;9.80;;;4.30;;
81811;SDS011;71243;51.848;5.768;2023-08-30T09:48:32;10.77;;;4.57;;
81811;SDS011;71243;51.848;5.768;2023-08-30T09:50:58;10.30;;;4.20;;
81811;SDS011;71243;51.848;5.768;2023-08-30T09:53:25;11.20;;;4.95;;
81811;SDS011;71243;51.848;5.768;2023-08-30T09:55:51;8.60;;;3.90;;
81811;SDS011;71243;51.848;5.768;2023-08-30T09:58:17;10.65;;;4.75;;
81811;SDS011;71243;51.848;5.768;2023-08-30T10:00:42;11.52;;;5.38;;
81811;SDS011;71243;51.848;5.768;2023-08-30T10:03:08;11.10;;;5.10;;
81811;SDS011;71243;51.848;5.768;2023-08-30T10:05:34;9.20;;;4.43;;
81811;SDS011;71243;51.848;5.768;2023-08-30T10:08:00;10.25;;;5.05;;
81811;SDS011;71243;51.848;5.768;2023-08-30T10:10:27;10.82;;;4.82;;
81811;SDS011;71243;51.848;5.768;2023-08-30T10:12:54;10.85;;;5.47;;
81811;SDS011;71243;51.848;5.768;2023-08-30T10:15:21;11.25;;;5.82;;
81811;SDS011;71243;51.848;5.768;2023-08-30T10:17:48;11.60;;;5.72;;
81811;SDS011;71243;51.848;5.768;2023-08-30T10:20:17;12.93;;;5.95;;
81811;SDS011;71243;51.848;5.768;2023-08-30T10:22:43;12.02;;;6.32;;
81811;SDS011;71243;51.848;5.768;2023-08-30T10:25:10;13.35;;;6.60;;
81811;SDS011;71243;51.848;5.768;2023-08-30T10:27:41;10.73;;;5.60;;
81811;SDS011;71243;51.848;5.768;2023-08-30T10:30:10;11.45;;;5.97;;
81811;SDS011;71243;51.848;5.768;2023-08-30T10:32:40;10.55;;;5.38;;
81811;SDS011;71243;51.848;5.768;2023-08-30T10:35:06;11.60;;;6.13;;
81811;SDS011;71243;51.848;5.768;2023-08-30T10:37:32;11.57;;;5.95;;
81811;SDS011;71243;51.848;5.768;2023-08-30T10:40:00;10.83;;;5.53;;
81811;SDS011;71243;51.848;5.768;2023-08-30T10:42:26;11.73;;;5.65;;
81811;SDS011;71243;51.848;5.768;2023-08-30T10:44:52;12.33;;;6.30;;
81811;SDS011;71243;51.848;5.768;2023-08-30T10:47:25;12.05;;;6.15;;
81811;SDS011;71243;51.848;5.768;2023-08-30T10:49:58;12.65;;;6.00;;
81811;SDS011;71243;51.848;5.768;2023-08-30T10:52:25;10.75;;;5.63;;
81811;SDS011;71243;51.848;5.768;2023-08-30T10:54:51;11.95;;;5.93;;
81811;SDS011;71243;51.848;5.768;2023-08-30T10:57:20;12.48;;;6.05;;
81811;SDS011;71243;51.848;5.768;2023-08-30T11:02:31;11.32;;;5.93;;
81811;SDS011;71243;51.848;5.768;2023-08-30T11:04:57;11.93;;;5.80;;
81811;SDS011;71243;51.848;5.768;2023-08-30T11:07:26;11.57;;;6.00;;
81811;SDS011;71243;51.848;5.768;2023-08-30T11:09:52;11.40;;;5.95;;
81811;SDS011;71243;51.848;5.768;2023-08-30T11:12:18;11.48;;;5.40;;
81811;SDS011;71243;51.848;5.768;2023-08-30T11:14:43;13.07;;;6.53;;
81811;SDS011;71243;51.848;5.768;2023-08-30T11:17:12;13.48;;;6.38;;
81811;SDS011;71243;51.848;5.768;2023-08-30T11:19:37;9.52;;;5.63;;
81811;SDS011;71243;51.848;5.768;2023-08-30T11:22:02;11.65;;;5.63;;
81811;SDS011;71243;51.848;5.768;2023-08-30T11:24:28;10.15;;;5.43;;
81811;SDS011;71243;51.848;5.768;2023-08-30T11:26:54;10.18;;;5.63;;
81811;SDS011;71243;51.848;5.768;2023-08-30T11:29:19;9.68;;;5.65;;
81811;SDS011;71243;51.848;5.768;2023-08-30T11:31:45;12.60;;;6.10;;
81811;SDS011;71243;51.848;5.768;2023-08-30T11:34:10;10.97;;;5.63;;
81811;SDS011;71243;51.848;5.768;2023-08-30T11:36:35;10.73;;;5.50;;
81811;SDS011;71243;51.848;5.768;2023-08-30T11:39:01;10.55;;;4.95;;
81811;SDS011;71243;51.848;5.768;2023-08-30T11:41:27;8.98;;;4.20;;
81811;SDS011;71243;51.848;5.768;2023-08-30T11:43:52;6.88;;;3.15;;
81811;SDS011;71243;51.848;5.768;2023-08-30T11:46:18;7.30;;;3.00;;
81811;SDS011;71243;51.848;5.768;2023-08-30T11:48:44;9.30;;;3.20;;
81811;SDS011;71243;51.848;5.768;2023-08-30T11:51:11;7.57;;;2.75;;
81811;SDS011;71243;51.848;5.768;2023-08-30T11:53:37;6.57;;;2.33;;
81811;SDS011;71243;51.848;5.768;2023-08-30T11:56:03;6.10;;;2.60;;
81811;SDS011;71243;51.848;5.768;2023-08-30T11:58:33;7.35;;;2.85;;
81811;SDS011;71243;51.848;5.768;2023-08-30T12:00:59;10.50;;;2.88;;
81811;SDS011;71243;51.848;5.768;2023-08-30T12:03:28;7.72;;;2.85;;
81811;SDS011;71243;51.848;5.768;2023-08-30T12:05:54;6.80;;;2.80;;
81811;SDS011;71243;51.848;5.768;2023-08-30T12:08:20;9.00;;;3.00;;
81811;SDS011;71243;51.848;5.768;2023-08-30T12:10:49;10.82;;;3.03;;
81811;SDS011;71243;51.848;5.768;2023-08-30T12:13:22;6.40;;;2.47;;
81811;SDS011;71243;51.848;5.768;2023-08-30T12:15:48;8.35;;;3.03;;
81811;SDS011;71243;51.848;5.768;2023-08-30T12:18:13;10.70;;;3.03;;
81811;SDS011;71243;51.848;5.768;2023-08-30T12:20:38;9.93;;;2.92;;
81811;SDS011;71243;51.848;5.768;2023-08-30T12:23:03;8.25;;;2.83;;
81811;SDS011;71243;51.848;5.768;2023-08-30T12:25:29;8.98;;;3.15;;
81811;SDS011;71243;51.848;5.768;2023-08-30T12:27:54;7.68;;;2.88;;
81811;SDS011;71243;51.848;5.768;2023-08-30T12:30:19;9.43;;;2.83;;
81811;SDS011;71243;51.848;5.768;2023-08-30T12:32:45;8.50;;;3.05;;
81811;SDS011;71243;51.848;5.768;2023-08-30T12:35:10;8.32;;;2.80;;
81811;SDS011;71243;51.848;5.768;2023-08-30T12:37:36;6.82;;;2.70;;
81811;SDS011;71243;51.848;5.768;2023-08-30T12:40:01;8.13;;;2.90;;
81811;SDS011;71243;51.848;5.768;2023-08-30T12:42:26;9.27;;;3.13;;
81811;SDS011;71243;51.848;5.768;2023-08-30T12:44:52;8.88;;;2.92;;
81811;SDS011;71243;51.848;5.768;2023-08-30T12:47:17;7.80;;;2.93;;
81811;SDS011;71243;51.848;5.768;2023-08-30T12:49:42;8.07;;;3.25;;
81811;SDS011;71243;51.848;5.768;2023-08-30T12:52:08;7.53;;;3.03;;
81811;SDS011;71243;51.848;5.768;2023-08-30T12:54:33;10.18;;;2.47;;
81811;SDS011;71243;51.848;5.768;2023-08-30T12:56:58;6.63;;;2.37;;
81811;SDS011;71243;51.848;5.768;2023-08-30T12:59:23;9.63;;;3.20;;
81811;SDS011;71243;51.848;5.768;2023-08-30T13:01:48;8.27;;;2.93;;
81811;SDS011;71243;51.848;5.768;2023-08-30T13:04:14;11.10;;;2.70;;
81811;SDS011;71243;51.848;5.768;2023-08-30T13:06:39;8.60;;;2.73;;
81811;SDS011;71243;51.848;5.768;2023-08-30T13:09:04;8.27;;;3.03;;
81811;SDS011;71243;51.848;5.768;2023-08-30T13:11:29;6.72;;;2.58;;
81811;SDS011;71243;51.848;5.768;2023-08-30T13:13:55;8.53;;;2.43;;
81811;SDS011;71243;51.848;5.768;2023-08-30T13:16:20;9.83;;;2.97;;
81811;SDS011;71243;51.848;5.768;2023-08-30T13:18:45;7.82;;;3.00;;
81811;SDS011;71243;51.848;5.768;2023-08-30T13:21:10;10.20;;;2.80;;
81811;SDS011;71243;51.848;5.768;2023-08-30T13:23:35;9.63;;;2.83;;
81811;SDS011;71243;51.848;5.768;2023-08-30T13:26:01;7.18;;;2.42;;
81811;SDS011;71243;51.848;5.768;2023-08-30T13:28:26;9.57;;;3.10;;
81811;SDS011;71243;51.848;5.768;2023-08-30T13:30:51;7.22;;;2.13;;
81811;SDS011;71243;51.848;5.768;2023-08-30T13:33:16;8.53;;;2.47;;
81811;SDS011;71243;51.848;5.768;2023-08-30T13:35:42;7.80;;;2.57;;
81811;SDS011;71243;51.848;5.768;2023-08-30T13:38:07;8.43;;;2.00;;
81811;SDS011;71243;51.848;5.768;2023-08-30T13:40:32;7.53;;;1.90;;
81811;SDS011;71243;51.848;5.768;2023-08-30T13:42:57;7.78;;;1.73;;
81811;SDS011;71243;51.848;5.768;2023-08-30T13:45:23;10.05;;;3.05;;
81811;SDS011;71243;51.848;5.768;2023-08-30T13:47:48;6.60;;;1.50;;
81811;SDS011;71243;51.848;5.768;2023-08-30T13:50:13;5.67;;;1.57;;
81811;SDS011;71243;51.848;5.768;2023-08-30T13:52:38;6.55;;;1.50;;
81811;SDS011;71243;51.848;5.768;2023-08-30T13:55:04;6.33;;;1.77;;
81811;SDS011;71243;51.848;5.768;2023-08-30T13:57:29;8.02;;;1.60;;
81811;SDS011;71243;51.848;5.768;2023-08-30T13:59:54;13.20;;;1.80;;
81811;SDS011;71243;51.848;5.768;2023-08-30T14:02:20;8.02;;;1.60;;
81811;SDS011;71243;51.848;5.768;2023-08-30T14:04:45;7.20;;;1.80;;
81811;SDS011;71243;51.848;5.768;2023-08-30T14:07:10;9.20;;;2.23;;
81811;SDS011;71243;51.848;5.768;2023-08-30T14:09:35;9.73;;;2.27;;
81811;SDS011;71243;51.848;5.768;2023-08-30T14:12:01;10.10;;;1.98;;
81811;SDS011;71243;51.848;5.768;2023-08-30T14:14:26;7.43;;;1.70;;
81811;SDS011;71243;51.848;5.768;2023-08-30T14:16:51;8.23;;;1.80;;
81811;SDS011;71243;51.848;5.768;2023-08-30T14:19:16;8.27;;;1.97;;
81811;SDS011;71243;51.848;5.768;2023-08-30T14:21:42;5.60;;;1.50;;
81811;SDS011;71243;51.848;5.768;2023-08-30T14:24:07;8.77;;;1.60;;
81811;SDS011;71243;51.848;5.768;2023-08-30T14:26:32;5.70;;;1.42;;
81811;SDS011;71243;51.848;5.768;2023-08-30T14:28:57;6.50;;;1.65;;
81811;SDS011;71243;51.848;5.768;2023-08-30T14:31:23;6.90;;;1.45;;
81811;SDS011;71243;51.848;5.768;2023-08-30T14:33:48;6.60;;;1.67;;
81811;SDS011;71243;51.848;5.768;2023-08-30T14:36:13;7.47;;;1.80;;
81811;SDS011;71243;51.848;5.768;2023-08-30T14:38:39;6.13;;;1.90;;
81811;SDS011;71243;51.848;5.768;2023-08-30T14:41:04;5.63;;;1.50;;
81811;SDS011;71243;51.848;5.768;2023-08-30T14:43:29;7.80;;;1.73;;